Laguna, New Mexico
Current Conditions -  °F | °C
As of 12:56 PM on Thursday 23 Oct 2014 (Local Time) from KGNT Reporting Station
Clear Clear  
Wind Chill: 70°   Ceiling: Unl
Heat Index: 70°   Visibility: 10mi
Dew Point: 28°   Wind: 3mph
Humidity: 21%   Direction: 300°WNW
Pressure: 30.34"   Gusts: NA
Location:  35.04°N, 107.39°W
Report Text: KGNT 231856Z AUTO 30003KT 10SM CLR 21/M02 A3034 RMK AO2
Loading
Personal Weather Stations






























Interactive Weather Map
Tropical Storm Tracking
New forecast layout! Learn more

10-Day Weather Forecast

Advertisements
Track Severe Weather on mobile